sensor_id;sensor_type;location;lat;lon;timestamp;P1;durP1;ratioP1;P2;durP2;ratioP2
12052;SDS011;6087;48.982;12.064;2023-09-30T00:00:21;15.57;;;7.50;;
12052;SDS011;6087;48.982;12.064;2023-09-30T00:02:48;19.85;;;8.52;;
12052;SDS011;6087;48.982;12.064;2023-09-30T00:05:16;17.65;;;8.00;;
12052;SDS011;6087;48.982;12.064;2023-09-30T00:07:44;15.00;;;6.68;;
12052;SDS011;6087;48.982;12.064;2023-09-30T00:10:11;17.83;;;7.95;;
12052;SDS011;6087;48.982;12.064;2023-09-30T00:12:41;16.95;;;7.53;;
12052;SDS011;6087;48.982;12.064;2023-09-30T00:15:08;17.67;;;7.57;;
12052;SDS011;6087;48.982;12.064;2023-09-30T00:17:36;15.02;;;6.93;;
12052;SDS011;6087;48.982;12.064;2023-09-30T00:20:03;17.42;;;7.97;;
12052;SDS011;6087;48.982;12.064;2023-09-30T00:22:31;17.88;;;7.93;;
12052;SDS011;6087;48.982;12.064;2023-09-30T00:24:58;18.02;;;7.18;;
12052;SDS011;6087;48.982;12.064;2023-09-30T00:27:25;15.10;;;7.07;;
12052;SDS011;6087;48.982;12.064;2023-09-30T00:29:53;15.98;;;8.43;;
12052;SDS011;6087;48.982;12.064;2023-09-30T00:32:21;17.40;;;7.43;;
12052;SDS011;6087;48.982;12.064;2023-09-30T00:34:48;15.68;;;7.75;;
12052;SDS011;6087;48.982;12.064;2023-09-30T00:37:17;14.80;;;6.97;;
12052;SDS011;6087;48.982;12.064;2023-09-30T00:39:44;17.25;;;7.70;;
12052;SDS011;6087;48.982;12.064;2023-09-30T00:42:10;16.40;;;7.70;;
12052;SDS011;6087;48.982;12.064;2023-09-30T00:44:37;15.65;;;7.63;;
12052;SDS011;6087;48.982;12.064;2023-09-30T00:47:06;15.88;;;6.95;;
12052;SDS011;6087;48.982;12.064;2023-09-30T00:49:34;16.63;;;7.97;;
12052;SDS011;6087;48.982;12.064;2023-09-30T00:52:01;18.00;;;7.43;;
12052;SDS011;6087;48.982;12.064;2023-09-30T00:54:29;18.95;;;7.22;;
12052;SDS011;6087;48.982;12.064;2023-09-30T00:56:57;15.63;;;7.40;;
12052;SDS011;6087;48.982;12.064;2023-09-30T00:59:26;17.65;;;7.47;;
12052;SDS011;6087;48.982;12.064;2023-09-30T01:01:53;16.33;;;6.40;;
12052;SDS011;6087;48.982;12.064;2023-09-30T01:04:24;15.80;;;7.22;;
12052;SDS011;6087;48.982;12.064;2023-09-30T01:06:52;13.93;;;6.47;;
12052;SDS011;6087;48.982;12.064;2023-09-30T01:09:22;15.13;;;6.70;;
12052;SDS011;6087;48.982;12.064;2023-09-30T01:11:49;13.80;;;6.25;;
12052;SDS011;6087;48.982;12.064;2023-09-30T01:14:26;13.68;;;6.35;;
12052;SDS011;6087;48.982;12.064;2023-09-30T01:16:53;17.48;;;6.53;;
12052;SDS011;6087;48.982;12.064;2023-09-30T01:19:21;14.30;;;6.13;;
12052;SDS011;6087;48.982;12.064;2023-09-30T01:21:51;15.00;;;6.25;;
12052;SDS011;6087;48.982;12.064;2023-09-30T01:24:20;16.08;;;6.72;;
12052;SDS011;6087;48.982;12.064;2023-09-30T01:26:47;15.60;;;6.90;;
12052;SDS011;6087;48.982;12.064;2023-09-30T01:29:14;17.92;;;7.10;;
12052;SDS011;6087;48.982;12.064;2023-09-30T01:31:42;13.32;;;6.00;;
12052;SDS011;6087;48.982;12.064;2023-09-30T01:34:12;15.63;;;6.63;;
12052;SDS011;6087;48.982;12.064;2023-09-30T01:36:40;12.77;;;6.05;;
12052;SDS011;6087;48.982;12.064;2023-09-30T01:39:08;15.55;;;6.05;;
12052;SDS011;6087;48.982;12.064;2023-09-30T01:41:35;13.57;;;6.47;;
12052;SDS011;6087;48.982;12.064;2023-09-30T01:44:02;12.85;;;6.88;;
12052;SDS011;6087;48.982;12.064;2023-09-30T01:46:30;12.35;;;5.53;;
12052;SDS011;6087;48.982;12.064;2023-09-30T01:48:56;11.88;;;5.53;;
12052;SDS011;6087;48.982;12.064;2023-09-30T01:51:23;13.32;;;5.43;;
12052;SDS011;6087;48.982;12.064;2023-09-30T01:53:50;13.18;;;6.00;;
12052;SDS011;6087;48.982;12.064;2023-09-30T01:56:19;11.52;;;5.82;;
12052;SDS011;6087;48.982;12.064;2023-09-30T01:58:45;13.45;;;5.90;;
12052;SDS011;6087;48.982;12.064;2023-09-30T02:01:12;13.25;;;6.15;;
12052;SDS011;6087;48.982;12.064;2023-09-30T02:03:40;11.82;;;5.97;;
12052;SDS011;6087;48.982;12.064;2023-09-30T02:06:07;12.82;;;5.97;;
12052;SDS011;6087;48.982;12.064;2023-09-30T02:08:35;12.77;;;5.97;;
12052;SDS011;6087;48.982;12.064;2023-09-30T02:11:02;12.10;;;5.38;;
12052;SDS011;6087;48.982;12.064;2023-09-30T02:13:32;12.70;;;5.70;;
12052;SDS011;6087;48.982;12.064;2023-09-30T02:16:00;13.68;;;5.53;;
12052;SDS011;6087;48.982;12.064;2023-09-30T02:18:27;12.68;;;5.75;;
12052;SDS011;6087;48.982;12.064;2023-09-30T02:20:57;13.13;;;5.95;;
12052;SDS011;6087;48.982;12.064;2023-09-30T02:23:25;9.88;;;5.20;;
12052;SDS011;6087;48.982;12.064;2023-09-30T02:25:52;10.45;;;5.20;;
12052;SDS011;6087;48.982;12.064;2023-09-30T02:28:19;14.45;;;5.95;;
12052;SDS011;6087;48.982;12.064;2023-09-30T02:30:47;10.25;;;5.40;;
12052;SDS011;6087;48.982;12.064;2023-09-30T02:33:14;14.52;;;6.30;;
12052;SDS011;6087;48.982;12.064;2023-09-30T02:35:43;15.93;;;6.22;;
12052;SDS011;6087;48.982;12.064;2023-09-30T02:38:12;16.67;;;6.68;;
12052;SDS011;6087;48.982;12.064;2023-09-30T02:40:41;14.10;;;5.50;;
12052;SDS011;6087;48.982;12.064;2023-09-30T02:43:11;14.40;;;6.15;;
12052;SDS011;6087;48.982;12.064;2023-09-30T02:45:38;13.02;;;6.40;;
12052;SDS011;6087;48.982;12.064;2023-09-30T02:48:07;15.60;;;6.70;;
12052;SDS011;6087;48.982;12.064;2023-09-30T02:50:33;15.27;;;6.45;;
12052;SDS011;6087;48.982;12.064;2023-09-30T02:53:04;16.58;;;6.35;;
12052;SDS011;6087;48.982;12.064;2023-09-30T02:55:33;15.75;;;7.22;;
12052;SDS011;6087;48.982;12.064;2023-09-30T02:58:00;17.58;;;6.95;;
12052;SDS011;6087;48.982;12.064;2023-09-30T03:00:27;15.95;;;6.93;;
12052;SDS011;6087;48.982;12.064;2023-09-30T03:02:59;17.55;;;6.93;;
12052;SDS011;6087;48.982;12.064;2023-09-30T03:05:28;16.30;;;7.13;;
12052;SDS011;6087;48.982;12.064;2023-09-30T03:07:58;15.57;;;7.50;;
12052;SDS011;6087;48.982;12.064;2023-09-30T03:10:25;14.77;;;7.40;;
12052;SDS011;6087;48.982;12.064;2023-09-30T03:12:52;15.85;;;7.18;;
12052;SDS011;6087;48.982;12.064;2023-09-30T03:15:19;14.52;;;7.18;;
12052;SDS011;6087;48.982;12.064;2023-09-30T03:17:46;19.35;;;8.35;;
12052;SDS011;6087;48.982;12.064;2023-09-30T03:20:14;20.33;;;8.70;;
12052;SDS011;6087;48.982;12.064;2023-09-30T03:22:45;21.85;;;8.63;;
12052;SDS011;6087;48.982;12.064;2023-09-30T03:25:13;16.70;;;7.90;;
12052;SDS011;6087;48.982;12.064;2023-09-30T03:27:43;19.95;;;8.23;;
12052;SDS011;6087;48.982;12.064;2023-09-30T03:30:11;16.48;;;7.63;;
12052;SDS011;6087;48.982;12.064;2023-09-30T03:32:40;17.73;;;8.25;;
12052;SDS011;6087;48.982;12.064;2023-09-30T03:35:08;18.70;;;8.20;;
12052;SDS011;6087;48.982;12.064;2023-09-30T03:37:40;14.75;;;7.63;;
12052;SDS011;6087;48.982;12.064;2023-09-30T03:40:09;17.13;;;8.02;;
12052;SDS011;6087;48.982;12.064;2023-09-30T03:42:39;17.63;;;7.95;;
12052;SDS011;6087;48.982;12.064;2023-09-30T03:45:09;15.55;;;6.78;;
12052;SDS011;6087;48.982;12.064;2023-09-30T03:47:37;16.85;;;7.90;;
12052;SDS011;6087;48.982;12.064;2023-09-30T03:50:06;16.05;;;7.78;;
12052;SDS011;6087;48.982;12.064;2023-09-30T03:52:39;17.48;;;7.78;;
12052;SDS011;6087;48.982;12.064;2023-09-30T03:55:10;16.55;;;6.97;;
12052;SDS011;6087;48.982;12.064;2023-09-30T03:57:55;17.38;;;7.57;;
12052;SDS011;6087;48.982;12.064;2023-09-30T04:00:27;16.75;;;7.18;;
12052;SDS011;6087;48.982;12.064;2023-09-30T04:02:54;20.33;;;8.07;;
12052;SDS011;6087;48.982;12.064;2023-09-30T04:05:23;16.20;;;6.82;;
12052;SDS011;6087;48.982;12.064;2023-09-30T04:07:54;13.07;;;7.88;;
12052;SDS011;6087;48.982;12.064;2023-09-30T04:10:23;17.00;;;7.30;;
12052;SDS011;6087;48.982;12.064;2023-09-30T04:12:50;14.00;;;7.43;;
12052;SDS011;6087;48.982;12.064;2023-09-30T04:15:20;18.83;;;8.00;;
12052;SDS011;6087;48.982;12.064;2023-09-30T04:17:47;13.95;;;7.18;;
12052;SDS011;6087;48.982;12.064;2023-09-30T04:20:16;16.88;;;7.22;;
12052;SDS011;6087;48.982;12.064;2023-09-30T04:22:48;18.08;;;7.60;;
12052;SDS011;6087;48.982;12.064;2023-09-30T04:25:16;15.00;;;7.65;;
12052;SDS011;6087;48.982;12.064;2023-09-30T04:27:48;13.85;;;6.38;;
12052;SDS011;6087;48.982;12.064;2023-09-30T04:30:15;14.75;;;6.82;;
12052;SDS011;6087;48.982;12.064;2023-09-30T04:32:47;12.80;;;6.00;;
12052;SDS011;6087;48.982;12.064;2023-09-30T04:35:14;13.98;;;6.25;;
12052;SDS011;6087;48.982;12.064;2023-09-30T04:37:41;13.75;;;6.38;;
12052;SDS011;6087;48.982;12.064;2023-09-30T04:40:11;14.57;;;6.25;;
12052;SDS011;6087;48.982;12.064;2023-09-30T04:42:40;14.48;;;5.93;;
12052;SDS011;6087;48.982;12.064;2023-09-30T04:45:11;14.45;;;6.38;;
12052;SDS011;6087;48.982;12.064;2023-09-30T04:47:41;11.65;;;6.05;;
12052;SDS011;6087;48.982;12.064;2023-09-30T04:50:09;16.40;;;7.07;;
12052;SDS011;6087;48.982;12.064;2023-09-30T04:52:38;10.68;;;5.93;;
12052;SDS011;6087;48.982;12.064;2023-09-30T04:55:09;13.43;;;5.72;;
12052;SDS011;6087;48.982;12.064;2023-09-30T04:57:37;13.13;;;5.78;;
12052;SDS011;6087;48.982;12.064;2023-09-30T05:00:04;13.45;;;5.63;;
12052;SDS011;6087;48.982;12.064;2023-09-30T05:02:37;12.05;;;5.25;;
12052;SDS011;6087;48.982;12.064;2023-09-30T05:05:04;11.30;;;5.47;;
12052;SDS011;6087;48.982;12.064;2023-09-30T05:07:32;13.20;;;6.03;;
12052;SDS011;6087;48.982;12.064;2023-09-30T05:09:59;12.90;;;6.00;;
12052;SDS011;6087;48.982;12.064;2023-09-30T05:12:30;12.30;;;5.47;;
12052;SDS011;6087;48.982;12.064;2023-09-30T05:14:57;13.90;;;5.70;;
12052;SDS011;6087;48.982;12.064;2023-09-30T05:17:24;14.02;;;5.55;;
12052;SDS011;6087;48.982;12.064;2023-09-30T05:19:55;13.73;;;5.95;;
12052;SDS011;6087;48.982;12.064;2023-09-30T05:22:22;11.68;;;6.15;;
12052;SDS011;6087;48.982;12.064;2023-09-30T05:24:50;10.93;;;5.18;;
12052;SDS011;6087;48.982;12.064;2023-09-30T05:27:18;12.55;;;6.32;;
12052;SDS011;6087;48.982;12.064;2023-09-30T05:29:45;14.25;;;6.60;;
12052;SDS011;6087;48.982;12.064;2023-09-30T05:32:14;14.38;;;5.63;;
12052;SDS011;6087;48.982;12.064;2023-09-30T05:34:40;14.32;;;6.18;;
12052;SDS011;6087;48.982;12.064;2023-09-30T05:37:12;12.55;;;5.70;;
12052;SDS011;6087;48.982;12.064;2023-09-30T05:39:39;10.93;;;5.53;;
12052;SDS011;6087;48.982;12.064;2023-09-30T05:42:06;11.43;;;5.80;;
12052;SDS011;6087;48.982;12.064;2023-09-30T05:44:36;10.45;;;5.07;;
12052;SDS011;6087;48.982;12.064;2023-09-30T05:47:03;10.82;;;4.90;;
12052;SDS011;6087;48.982;12.064;2023-09-30T05:49:30;10.25;;;4.97;;
12052;SDS011;6087;48.982;12.064;2023-09-30T05:51:57;10.18;;;4.88;;
12052;SDS011;6087;48.982;12.064;2023-09-30T05:54:26;11.68;;;5.15;;
12052;SDS011;6087;48.982;12.064;2023-09-30T05:56:53;11.75;;;5.50;;
12052;SDS011;6087;48.982;12.064;2023-09-30T05:59:21;10.02;;;5.40;;
12052;SDS011;6087;48.982;12.064;2023-09-30T06:01:50;9.40;;;4.95;;
12052;SDS011;6087;48.982;12.064;2023-09-30T06:04:17;11.95;;;5.50;;
12052;SDS011;6087;48.982;12.064;2023-09-30T06:06:44;10.80;;;5.10;;
12052;SDS011;6087;48.982;12.064;2023-09-30T06:09:11;7.65;;;4.35;;
12052;SDS011;6087;48.982;12.064;2023-09-30T06:11:40;10.52;;;4.53;;
12052;SDS011;6087;48.982;12.064;2023-09-30T06:14:07;12.52;;;5.32;;
12052;SDS011;6087;48.982;12.064;2023-09-30T06:16:34;10.95;;;4.65;;
12052;SDS011;6087;48.982;12.064;2023-09-30T06:19:01;11.57;;;5.88;;
12052;SDS011;6087;48.982;12.064;2023-09-30T06:21:29;13.75;;;5.40;;
12052;SDS011;6087;48.982;12.064;2023-09-30T06:23:59;11.32;;;5.35;;
12052;SDS011;6087;48.982;12.064;2023-09-30T06:26:26;12.00;;;5.18;;
12052;SDS011;6087;48.982;12.064;2023-09-30T06:28:56;11.90;;;4.90;;
12052;SDS011;6087;48.982;12.064;2023-09-30T06:31:23;12.13;;;4.47;;
12052;SDS011;6087;48.982;12.064;2023-09-30T06:33:51;10.60;;;5.05;;
12052;SDS011;6087;48.982;12.064;2023-09-30T06:36:21;8.68;;;4.80;;
12052;SDS011;6087;48.982;12.064;2023-09-30T06:38:48;11.50;;;5.22;;
12052;SDS011;6087;48.982;12.064;2023-09-30T06:41:17;10.10;;;4.35;;
12052;SDS011;6087;48.982;12.064;2023-09-30T06:43:44;10.75;;;5.30;;
12052;SDS011;6087;48.982;12.064;2023-09-30T06:46:13;11.85;;;5.00;;
12052;SDS011;6087;48.982;12.064;2023-09-30T06:48:40;10.45;;;5.07;;
12052;SDS011;6087;48.982;12.064;2023-09-30T06:51:12;10.52;;;4.88;;
12052;SDS011;6087;48.982;12.064;2023-09-30T06:53:42;10.90;;;4.65;;
12052;SDS011;6087;48.982;12.064;2023-09-30T06:56:09;9.30;;;4.63;;
12052;SDS011;6087;48.982;12.064;2023-09-30T06:58:38;11.30;;;4.90;;
12052;SDS011;6087;48.982;12.064;2023-09-30T07:01:05;9.48;;;4.70;;
12052;SDS011;6087;48.982;12.064;2023-09-30T07:03:34;9.20;;;4.32;;
12052;SDS011;6087;48.982;12.064;2023-09-30T07:06:01;8.77;;;4.25;;
12052;SDS011;6087;48.982;12.064;2023-09-30T07:08:28;9.20;;;4.05;;
12052;SDS011;6087;48.982;12.064;2023-09-30T07:10:59;6.53;;;3.28;;
12052;SDS011;6087;48.982;12.064;2023-09-30T07:13:27;8.07;;;3.45;;
12052;SDS011;6087;48.982;12.064;2023-09-30T07:15:53;6.13;;;3.33;;
12052;SDS011;6087;48.982;12.064;2023-09-30T07:18:20;7.20;;;3.30;;
12052;SDS011;6087;48.982;12.064;2023-09-30T07:20:51;5.13;;;3.10;;
12052;SDS011;6087;48.982;12.064;2023-09-30T07:23:19;5.65;;;2.80;;
12052;SDS011;6087;48.982;12.064;2023-09-30T07:25:46;7.60;;;3.15;;
12052;SDS011;6087;48.982;12.064;2023-09-30T07:28:13;5.00;;;2.67;;
12052;SDS011;6087;48.982;12.064;2023-09-30T07:30:43;6.13;;;2.65;;
12052;SDS011;6087;48.982;12.064;2023-09-30T07:33:10;5.20;;;2.58;;
12052;SDS011;6087;48.982;12.064;2023-09-30T07:35:53;6.90;;;3.25;;
12052;SDS011;6087;48.982;12.064;2023-09-30T07:38:21;4.75;;;2.50;;
12052;SDS011;6087;48.982;12.064;2023-09-30T07:40:47;4.90;;;2.53;;
12052;SDS011;6087;48.982;12.064;2023-09-30T07:43:14;5.10;;;1.88;;
12052;SDS011;6087;48.982;12.064;2023-09-30T07:45:50;3.60;;;1.70;;
12052;SDS011;6087;48.982;12.064;2023-09-30T07:48:23;3.03;;;1.63;;
12052;SDS011;6087;48.982;12.064;2023-09-30T07:50:52;1.95;;;1.30;;
12052;SDS011;6087;48.982;12.064;2023-09-30T07:53:19;1.48;;;1.00;;
12052;SDS011;6087;48.982;12.064;2023-09-30T07:55:46;1.35;;;1.00;;
12052;SDS011;6087;48.982;12.064;2023-09-30T07:58:13;1.17;;;1.00;;
12052;SDS011;6087;48.982;12.064;2023-09-30T08:00:40;4.35;;;1.15;;
12052;SDS011;6087;48.982;12.064;2023-09-30T08:03:07;0.70;;;0.60;;
12052;SDS011;6087;48.982;12.064;2023-09-30T08:05:34;1.55;;;0.70;;
12052;SDS011;6087;48.982;12.064;2023-09-30T08:08:03;1.02;;;0.60;;
12052;SDS011;6087;48.982;12.064;2023-09-30T08:10:31;0.50;;;0.50;;
12052;SDS011;6087;48.982;12.064;2023-09-30T08:12:58;1.25;;;0.40;;
12052;SDS011;6087;48.982;12.064;2023-09-30T08:15:27;0.50;;;0.50;;
12052;SDS011;6087;48.982;12.064;2023-09-30T08:17:55;1.50;;;0.57;;
12052;SDS011;6087;48.982;12.064;2023-09-30T08:20:22;0.95;;;0.52;;
12052;SDS011;6087;48.982;12.064;2023-09-30T08:22:49;1.02;;;0.57;;
12052;SDS011;6087;48.982;12.064;2023-09-30T08:25:17;1.02;;;0.73;;
12052;SDS011;6087;48.982;12.064;2023-09-30T08:27:44;1.10;;;0.80;;
12052;SDS011;6087;48.982;12.064;2023-09-30T08:30:14;1.10;;;0.60;;
12052;SDS011;6087;48.982;12.064;2023-09-30T08:32:42;0.85;;;0.73;;
12052;SDS011;6087;48.982;12.064;2023-09-30T08:35:09;1.20;;;0.80;;
12052;SDS011;6087;48.982;12.064;2023-09-30T08:37:37;1.17;;;0.63;;
12052;SDS011;6087;48.982;12.064;2023-09-30T08:40:05;0.80;;;0.50;;
12052;SDS011;6087;48.982;12.064;2023-09-30T08:42:36;0.43;;;0.38;;
12052;SDS011;6087;48.982;12.064;2023-09-30T08:45:05;0.68;;;0.40;;
12052;SDS011;6087;48.982;12.064;2023-09-30T08:47:36;0.57;;;0.40;;
12052;SDS011;6087;48.982;12.064;2023-09-30T08:50:04;2.53;;;0.73;;
12052;SDS011;6087;48.982;12.064;2023-09-30T08:52:35;0.77;;;0.50;;
12052;SDS011;6087;48.982;12.064;2023-09-30T08:55:04;0.50;;;0.35;;
12052;SDS011;6087;48.982;12.064;2023-09-30T08:57:32;1.55;;;0.47;;
12052;SDS011;6087;48.982;12.064;2023-09-30T09:00:04;1.95;;;0.30;;
12052;SDS011;6087;48.982;12.064;2023-09-30T09:02:33;0.65;;;0.50;;
12052;SDS011;6087;48.982;12.064;2023-09-30T09:05:01;0.30;;;0.30;;
12052;SDS011;6087;48.982;12.064;2023-09-30T09:07:28;0.40;;;0.40;;
12052;SDS011;6087;48.982;12.064;2023-09-30T09:10:03;0.17;;;0.17;;
12052;SDS011;6087;48.982;12.064;2023-09-30T09:12:31;1.40;;;0.40;;
12052;SDS011;6087;48.982;12.064;2023-09-30T09:14:59;0.50;;;0.40;;
12052;SDS011;6087;48.982;12.064;2023-09-30T09:17:34;0.43;;;0.30;;
12052;SDS011;6087;48.982;12.064;2023-09-30T09:20:07;0.30;;;0.28;;
12052;SDS011;6087;48.982;12.064;2023-09-30T09:22:39;0.17;;;0.17;;
12052;SDS011;6087;48.982;12.064;2023-09-30T09:25:06;0.60;;;0.40;;
12052;SDS011;6087;48.982;12.064;2023-09-30T09:27:34;0.65;;;0.32;;
12052;SDS011;6087;48.982;12.064;2023-09-30T09:30:14;1.48;;;0.40;;
12052;SDS011;6087;48.982;12.064;2023-09-30T09:32:56;0.88;;;0.17;;
12052;SDS011;6087;48.982;12.064;2023-09-30T09:35:25;0.10;;;0.10;;
12052;SDS011;6087;48.982;12.064;2023-09-30T09:37:54;0.13;;;0.10;;
12052;SDS011;6087;48.982;12.064;2023-09-30T09:40:25;0.10;;;0.10;;
12052;SDS011;6087;48.982;12.064;2023-09-30T09:42:56;3.10;;;0.55;;
12052;SDS011;6087;48.982;12.064;2023-09-30T09:45:24;1.17;;;0.40;;
12052;SDS011;6087;48.982;12.064;2023-09-30T09:47:52;0.15;;;0.10;;
12052;SDS011;6087;48.982;12.064;2023-09-30T09:50:21;0.47;;;0.25;;
12052;SDS011;6087;48.982;12.064;2023-09-30T09:52:49;10.30;;;1.25;;
12052;SDS011;6087;48.982;12.064;2023-09-30T09:55:17;0.63;;;0.30;;
12052;SDS011;6087;48.982;12.064;2023-09-30T09:57:45;0.30;;;0.17;;
12052;SDS011;6087;48.982;12.064;2023-09-30T10:00:15;0.52;;;0.40;;
12052;SDS011;6087;48.982;12.064;2023-09-30T10:02:44;1.30;;;0.40;;
12052;SDS011;6087;48.982;12.064;2023-09-30T10:05:12;0.93;;;0.22;;
12052;SDS011;6087;48.982;12.064;2023-09-30T10:07:46;0.85;;;0.30;;
12052;SDS011;6087;48.982;12.064;2023-09-30T10:10:23;0.38;;;0.38;;
12052;SDS011;6087;48.982;12.064;2023-09-30T10:12:51;0.50;;;0.50;;
12052;SDS011;6087;48.982;12.064;2023-09-30T10:15:34;0.60;;;0.55;;
12052;SDS011;6087;48.982;12.064;2023-09-30T10:18:05;0.85;;;0.68;;
12052;SDS011;6087;48.982;12.064;2023-09-30T10:20:33;1.13;;;0.90;;
12052;SDS011;6087;48.982;12.064;2023-09-30T10:28:43;0.80;;;0.80;;
12052;SDS011;6087;48.982;12.064;2023-09-30T10:31:12;0.93;;;0.80;;
12052;SDS011;6087;48.982;12.064;2023-09-30T10:36:45;1.33;;;0.68;;
12052;SDS011;6087;48.982;12.064;2023-09-30T10:39:19;1.50;;;0.70;;
12052;SDS011;6087;48.982;12.064;2023-09-30T10:51:00;1.88;;;1.20;;
12052;SDS011;6087;48.982;12.064;2023-09-30T10:53:27;2.08;;;1.10;;
12052;SDS011;6087;48.982;12.064;2023-09-30T10:55:58;5.47;;;1.25;;
12052;SDS011;6087;48.982;12.064;2023-09-30T10:58:38;2.50;;;1.08;;
12052;SDS011;6087;48.982;12.064;2023-09-30T11:01:05;2.00;;;1.50;;
12052;SDS011;6087;48.982;12.064;2023-09-30T11:03:32;2.13;;;1.40;;
12052;SDS011;6087;48.982;12.064;2023-09-30T11:06:02;1.80;;;1.27;;
12052;SDS011;6087;48.982;12.064;2023-09-30T11:08:30;2.95;;;1.35;;
12052;SDS011;6087;48.982;12.064;2023-09-30T11:11:00;2.90;;;1.90;;
12052;SDS011;6087;48.982;12.064;2023-09-30T11:13:31;2.38;;;1.63;;
12052;SDS011;6087;48.982;12.064;2023-09-30T11:16:00;4.43;;;1.95;;
12052;SDS011;6087;48.982;12.064;2023-09-30T11:18:29;3.38;;;1.35;;
12052;SDS011;6087;48.982;12.064;2023-09-30T11:21:04;1.98;;;1.55;;
12052;SDS011;6087;48.982;12.064;2023-09-30T11:23:33;2.40;;;1.48;;
12052;SDS011;6087;48.982;12.064;2023-09-30T11:26:02;2.58;;;1.67;;
12052;SDS011;6087;48.982;12.064;2023-09-30T11:28:36;2.42;;;1.77;;
12052;SDS011;6087;48.982;12.064;2023-09-30T11:31:06;2.90;;;1.65;;
12052;SDS011;6087;48.982;12.064;2023-09-30T11:33:46;3.78;;;1.83;;
12052;SDS011;6087;48.982;12.064;2023-09-30T11:36:14;5.07;;;1.85;;
12052;SDS011;6087;48.982;12.064;2023-09-30T11:38:44;4.60;;;2.22;;
12052;SDS011;6087;48.982;12.064;2023-09-30T11:41:14;3.03;;;1.63;;
12052;SDS011;6087;48.982;12.064;2023-09-30T11:43:57;2.92;;;1.70;;
12052;SDS011;6087;48.982;12.064;2023-09-30T11:46:26;3.42;;;2.55;;
12052;SDS011;6087;48.982;12.064;2023-09-30T11:48:56;3.33;;;2.05;;
12052;SDS011;6087;48.982;12.064;2023-09-30T11:51:25;3.53;;;2.10;;
12052;SDS011;6087;48.982;12.064;2023-09-30T11:53:52;5.22;;;1.92;;
12052;SDS011;6087;48.982;12.064;2023-09-30T11:56:21;4.50;;;2.45;;
12052;SDS011;6087;48.982;12.064;2023-09-30T11:58:53;5.50;;;2.10;;
12052;SDS011;6087;48.982;12.064;2023-09-30T12:01:20;3.80;;;2.22;;
12052;SDS011;6087;48.982;12.064;2023-09-30T12:03:50;3.83;;;2.10;;
12052;SDS011;6087;48.982;12.064;2023-09-30T12:06:19;4.72;;;2.03;;
12052;SDS011;6087;48.982;12.064;2023-09-30T12:08:46;4.63;;;2.17;;
12052;SDS011;6087;48.982;12.064;2023-09-30T12:11:13;4.10;;;2.20;;
12052;SDS011;6087;48.982;12.064;2023-09-30T12:13:42;3.58;;;2.28;;
12052;SDS011;6087;48.982;12.064;2023-09-30T12:16:10;4.57;;;2.35;;
12052;SDS011;6087;48.982;12.064;2023-09-30T12:18:38;4.40;;;2.38;;
12052;SDS011;6087;48.982;12.064;2023-09-30T12:21:06;5.65;;;2.63;;
12052;SDS011;6087;48.982;12.064;2023-09-30T12:23:33;4.72;;;2.53;;
12052;SDS011;6087;48.982;12.064;2023-09-30T12:26:01;4.32;;;2.53;;
12052;SDS011;6087;48.982;12.064;2023-09-30T12:28:30;4.78;;;3.08;;
12052;SDS011;6087;48.982;12.064;2023-09-30T12:33:28;3.90;;;2.10;;
12052;SDS011;6087;48.982;12.064;2023-09-30T12:35:55;3.28;;;2.10;;
12052;SDS011;6087;48.982;12.064;2023-09-30T12:38:23;4.47;;;2.92;;
12052;SDS011;6087;48.982;12.064;2023-09-30T12:40:50;4.55;;;2.42;;
12052;SDS011;6087;48.982;12.064;2023-09-30T12:43:18;3.40;;;2.55;;
12052;SDS011;6087;48.982;12.064;2023-09-30T12:45:45;6.70;;;2.65;;
12052;SDS011;6087;48.982;12.064;2023-09-30T12:48:13;4.45;;;2.78;;
12052;SDS011;6087;48.982;12.064;2023-09-30T12:50:40;3.45;;;2.78;;
12052;SDS011;6087;48.982;12.064;2023-09-30T12:53:08;4.65;;;2.55;;
12052;SDS011;6087;48.982;12.064;2023-09-30T12:55:35;3.83;;;2.28;;
12052;SDS011;6087;48.982;12.064;2023-09-30T12:58:02;3.75;;;2.25;;
12052;SDS011;6087;48.982;12.064;2023-09-30T13:00:30;4.10;;;2.78;;
12052;SDS011;6087;48.982;12.064;2023-09-30T13:02:58;4.22;;;2.78;;
12052;SDS011;6087;48.982;12.064;2023-09-30T13:05:26;3.85;;;2.70;;
12052;SDS011;6087;48.982;12.064;2023-09-30T13:07:54;3.47;;;2.50;;
12052;SDS011;6087;48.982;12.064;2023-09-30T13:10:22;4.55;;;2.38;;
12052;SDS011;6087;48.982;12.064;2023-09-30T13:12:51;4.45;;;3.17;;
12052;SDS011;6087;48.982;12.064;2023-09-30T13:15:24;5.07;;;2.95;;
12052;SDS011;6087;48.982;12.064;2023-09-30T13:17:51;4.18;;;2.83;;
12052;SDS011;6087;48.982;12.064;2023-09-30T13:20:18;4.40;;;2.60;;
12052;SDS011;6087;48.982;12.064;2023-09-30T13:22:47;3.28;;;2.30;;
12052;SDS011;6087;48.982;12.064;2023-09-30T13:25:15;5.90;;;2.58;;
12052;SDS011;6087;48.982;12.064;2023-09-30T13:27:42;4.70;;;2.85;;
12052;SDS011;6087;48.982;12.064;2023-09-30T13:30:09;5.43;;;2.58;;
12052;SDS011;6087;48.982;12.064;2023-09-30T13:32:36;5.72;;;2.72;;
12052;SDS011;6087;48.982;12.064;2023-09-30T13:35:03;4.68;;;2.58;;
12052;SDS011;6087;48.982;12.064;2023-09-30T13:37:31;5.32;;;3.13;;
12052;SDS011;6087;48.982;12.064;2023-09-30T13:40:01;6.07;;;3.05;;
12052;SDS011;6087;48.982;12.064;2023-09-30T13:42:29;5.25;;;2.50;;
12052;SDS011;6087;48.982;12.064;2023-09-30T13:44:56;5.20;;;2.50;;
12052;SDS011;6087;48.982;12.064;2023-09-30T13:47:24;3.20;;;2.25;;
12052;SDS011;6087;48.982;12.064;2023-09-30T13:49:51;6.57;;;2.90;;
12052;SDS011;6087;48.982;12.064;2023-09-30T13:52:20;4.90;;;2.80;;
12052;SDS011;6087;48.982;12.064;2023-09-30T13:54:47;5.35;;;2.78;;
12052;SDS011;6087;48.982;12.064;2023-09-30T13:57:15;4.85;;;2.80;;
12052;SDS011;6087;48.982;12.064;2023-09-30T13:59:42;4.40;;;3.13;;
12052;SDS011;6087;48.982;12.064;2023-09-30T14:02:09;5.60;;;3.20;;
12052;SDS011;6087;48.982;12.064;2023-09-30T14:04:36;4.47;;;2.80;;
12052;SDS011;6087;48.982;12.064;2023-09-30T14:07:03;5.97;;;3.10;;
12052;SDS011;6087;48.982;12.064;2023-09-30T14:09:33;5.93;;;2.55;;
12052;SDS011;6087;48.982;12.064;2023-09-30T14:12:00;4.35;;;2.53;;
12052;SDS011;6087;48.982;12.064;2023-09-30T14:14:30;5.10;;;2.90;;
12052;SDS011;6087;48.982;12.064;2023-09-30T14:16:58;7.00;;;3.28;;
12052;SDS011;6087;48.982;12.064;2023-09-30T14:19:25;5.45;;;2.55;;
12052;SDS011;6087;48.982;12.064;2023-09-30T14:21:54;5.53;;;2.72;;
12052;SDS011;6087;48.982;12.064;2023-09-30T14:24:21;8.00;;;3.10;;
12052;SDS011;6087;48.982;12.064;2023-09-30T14:26:48;5.63;;;3.20;;
12052;SDS011;6087;48.982;12.064;2023-09-30T14:29:15;5.53;;;3.50;;
12052;SDS011;6087;48.982;12.064;2023-09-30T14:31:43;6.85;;;3.25;;
12052;SDS011;6087;48.982;12.064;2023-09-30T14:34:10;6.95;;;3.38;;
12052;SDS011;6087;48.982;12.064;2023-09-30T14:36:37;5.95;;;3.45;;
12052;SDS011;6087;48.982;12.064;2023-09-30T14:39:04;7.15;;;3.83;;
12052;SDS011;6087;48.982;12.064;2023-09-30T14:41:31;5.70;;;3.13;;
12052;SDS011;6087;48.982;12.064;2023-09-30T14:44:00;6.40;;;3.40;;
12052;SDS011;6087;48.982;12.064;2023-09-30T14:46:28;7.28;;;3.28;;
12052;SDS011;6087;48.982;12.064;2023-09-30T14:49:03;7.00;;;3.72;;
12052;SDS011;6087;48.982;12.064;2023-09-30T14:51:34;4.70;;;3.25;;
12052;SDS011;6087;48.982;12.064;2023-09-30T14:54:01;5.55;;;3.17;;
12052;SDS011;6087;48.982;12.064;2023-09-30T14:56:29;6.15;;;3.65;;
12052;SDS011;6087;48.982;12.064;2023-09-30T14:58:56;8.77;;;3.90;;
12052;SDS011;6087;48.982;12.064;2023-09-30T15:01:23;5.53;;;3.50;;
12052;SDS011;6087;48.982;12.064;2023-09-30T15:03:51;7.32;;;3.33;;
12052;SDS011;6087;48.982;12.064;2023-09-30T15:06:19;6.22;;;3.67;;
12052;SDS011;6087;48.982;12.064;2023-09-30T15:08:49;7.53;;;3.70;;